createdAt,value
2017-03-23T00:00:01.615Z,9
2017-03-23T00:05:01.566Z,9
2017-03-23T00:10:01.541Z,9
2017-03-23T00:15:01.647Z,9
2017-03-23T00:20:01.314Z,9
2017-03-23T00:25:02.175Z,9
2017-03-23T00:30:01.908Z,8.9
2017-03-23T00:35:01.579Z,8.8
2017-03-23T00:40:01.350Z,8.9
2017-03-23T00:45:01.309Z,8.9
2017-03-23T00:50:01.898Z,9
2017-03-23T00:55:01.725Z,9
2017-03-23T01:00:01.657Z,9
2017-03-23T01:05:01.306Z,9
2017-03-23T01:10:02.036Z,9
2017-03-23T01:15:02.012Z,9
2017-03-23T01:20:01.724Z,9
2017-03-23T01:25:01.554Z,8.9
2017-03-23T01:30:01.406Z,9
2017-03-23T01:35:01.649Z,8.9
2017-03-23T01:40:01.474Z,8.9
2017-03-23T01:45:01.314Z,8.9
2017-03-23T01:50:02.007Z,8.9
2017-03-23T01:55:01.853Z,8.8
2017-03-23T02:00:01.701Z,8.8
2017-03-23T02:05:01.344Z,8.8
2017-03-23T02:10:02.101Z,8.9
2017-03-23T02:15:01.534Z,8.8
2017-03-23T02:20:01.349Z,8.8
2017-03-23T02:25:02.118Z,8.8
2017-03-23T02:30:01.952Z,8.8
2017-03-23T02:35:01.755Z,8.8
2017-03-23T02:40:01.573Z,8.7
2017-03-23T02:45:01.396Z,8.6
2017-03-23T02:50:02.032Z,8.6
2017-03-23T02:55:01.836Z,8.6
2017-03-23T03:00:01.930Z,8.6
2017-03-23T03:05:01.432Z,8.6
2017-03-23T03:10:01.561Z,8.6
2017-03-23T03:15:01.653Z,8.6
2017-03-23T03:20:02.089Z,8.6
2017-03-23T03:25:01.880Z,8.7
2017-03-23T03:30:02.179Z,8.7
2017-03-23T03:35:01.502Z,8.7
2017-03-23T03:40:01.286Z,8.8
2017-03-23T03:45:01.777Z,8.7
2017-03-23T03:50:02.155Z,8.8
2017-03-23T03:55:01.929Z,8.7
2017-03-23T04:00:02.049Z,8.8
2017-03-23T04:05:01.377Z,8.8
2017-03-23T04:10:02.110Z,8.8
2017-03-23T04:15:02.149Z,8.8
2017-03-23T04:20:01.997Z,8.8
2017-03-23T04:25:01.897Z,8.8
2017-03-23T04:30:02.018Z,8.8
2017-03-23T04:35:01.680Z,8.8
2017-03-23T04:40:01.899Z,8.8
2017-03-23T04:45:01.288Z,8.8
2017-03-23T04:50:02.009Z,8.8
2017-03-23T04:55:01.819Z,8.8
2017-03-23T05:00:02.091Z,8.8
2017-03-23T05:05:01.908Z,8.8
2017-03-23T05:10:01.840Z,8.8
2017-03-23T05:15:01.801Z,8.8
2017-03-23T05:20:01.581Z,8.8
2017-03-23T05:25:01.730Z,8.8
2017-03-23T05:30:01.739Z,8.8
2017-03-23T05:35:01.680Z,8.8
2017-03-23T05:40:01.697Z,8.7
2017-03-23T05:45:01.354Z,8.8
2017-03-23T05:50:01.444Z,8.7
2017-03-23T05:55:02.049Z,8.7
2017-03-23T06:00:01.576Z,8.7
2017-03-23T06:05:01.558Z,8.7
2017-03-23T06:10:01.457Z,8.8
2017-03-23T06:15:01.934Z,8.7
2017-03-23T06:20:01.865Z,8.8
2017-03-23T06:25:01.219Z,8.8
2017-03-23T06:30:01.439Z,8.8
2017-03-23T06:35:02.099Z,8.7
2017-03-23T06:40:01.810Z,8.8
2017-03-23T06:45:01.676Z,8.8
2017-03-23T06:50:01.623Z,8.8
2017-03-23T06:55:01.447Z,8.8
2017-03-23T07:00:01.775Z,8.8
2017-03-23T07:05:01.983Z,8.9
2017-03-23T07:10:01.722Z,9
2017-03-23T07:15:02.294Z,9
2017-03-23T07:20:01.715Z,9.1
2017-03-23T07:25:02.034Z,9.2
2017-03-23T07:30:01.420Z,9.3
2017-03-23T07:35:01.540Z,9.2
2017-03-23T07:40:01.622Z,9.4
2017-03-23T07:45:01.428Z,9.5
2017-03-23T07:50:01.515Z,9.5
2017-03-23T07:55:01.309Z,9.5
2017-03-23T08:00:01.653Z,9.6
2017-03-23T08:05:01.956Z,9.6
2017-03-23T08:10:01.805Z,9.7
2017-03-23T08:15:01.236Z,9.7
2017-03-23T08:20:01.959Z,9.8
2017-03-23T08:25:02.127Z,9.8
2017-03-23T08:30:01.407Z,9.8
2017-03-23T08:35:01.599Z,9.9
2017-03-23T08:40:01.728Z,9.9
2017-03-23T08:45:01.282Z,9.8
2017-03-23T08:50:02.025Z,9.8
2017-03-23T08:55:01.649Z,9.8
2017-03-23T09:00:02.128Z,9.8
2017-03-23T09:05:01.584Z,9.7
2017-03-23T09:10:01.658Z,9.7
2017-03-23T09:15:02.056Z,9.8
2017-03-23T09:20:01.762Z,9.8
2017-03-23T09:25:02.063Z,9.8
2017-03-23T09:30:01.313Z,10
2017-03-23T09:35:02.127Z,9.9
2017-03-23T09:40:02.040Z,10
2017-03-23T09:45:01.387Z,10
2017-03-23T09:50:01.710Z,10.1
2017-03-23T09:55:01.304Z,10.2
2017-03-23T10:00:01.643Z,10.2
2017-03-23T10:05:02.153Z,10.2
2017-03-23T10:10:02.003Z,10.3
2017-03-23T10:15:01.451Z,10.4
2017-03-23T10:20:01.324Z,10.4
2017-03-23T10:25:01.439Z,10.4
2017-03-23T10:30:01.822Z,10.4
2017-03-23T10:35:01.268Z,10.4
2017-03-23T10:40:02.166Z,10.5
2017-03-23T10:45:01.538Z,10.4
2017-03-23T10:50:01.786Z,10.4
2017-03-23T10:55:01.708Z,10.4
2017-03-23T11:00:01.486Z,10.5
2017-03-23T11:05:01.587Z,10.5
2017-03-23T11:10:01.553Z,10.5
2017-03-23T11:15:01.974Z,10.6
2017-03-23T11:20:02.115Z,10.6
2017-03-23T11:25:01.311Z,10.6
2017-03-23T11:30:01.557Z,10.6
2017-03-23T11:35:02.118Z,10.6
2017-03-23T11:40:01.657Z,10.7
2017-03-23T11:45:01.255Z,10.6
2017-03-23T11:50:01.767Z,10.6
2017-03-23T11:55:01.343Z,10.5
2017-03-23T12:00:01.680Z,10.6
2017-03-23T12:05:02.116Z,10.6
2017-03-23T12:10:01.971Z,10.6
2017-03-23T12:15:01.212Z,10.6
2017-03-23T12:20:01.699Z,10.7
2017-03-23T12:25:01.865Z,10.7
2017-03-23T12:30:01.543Z,10.7
2017-03-23T12:35:01.550Z,10.6
2017-03-23T12:40:01.842Z,10.6
2017-03-23T12:45:01.636Z,10.6
2017-03-23T12:50:02.077Z,10.7
2017-03-23T12:55:01.429Z,10.8
2017-03-23T13:00:01.501Z,10.8
2017-03-23T13:05:01.614Z,10.9
2017-03-23T13:10:01.611Z,10.9
2017-03-23T13:15:01.745Z,10.9
2017-03-23T13:20:01.396Z,10.9
2017-03-23T13:25:01.520Z,10.9
2017-03-23T13:30:01.790Z,10.9
2017-03-23T13:35:01.278Z,10.9
2017-03-23T13:40:02.015Z,10.9
2017-03-23T13:45:01.699Z,10.8
2017-03-23T13:50:02.172Z,10.9
2017-03-23T13:55:01.321Z,11
2017-03-23T14:00:01.590Z,11
2017-03-23T14:05:01.464Z,11
2017-03-23T14:10:01.951Z,11.1
2017-03-23T14:15:01.399Z,11.1
2017-03-23T14:20:01.850Z,11.1
2017-03-23T14:25:02.008Z,11
2017-03-23T14:30:01.637Z,11
2017-03-23T14:35:01.808Z,11
2017-03-23T14:40:01.281Z,11.1
2017-03-23T14:45:01.910Z,11
2017-03-23T14:50:01.202Z,10.9
2017-03-23T14:55:01.224Z,10.8
2017-03-23T15:00:01.659Z,10.9
2017-03-23T15:05:01.728Z,10.8
2017-03-23T15:10:01.645Z,10.8
2017-03-23T15:15:02.011Z,10.8
2017-03-23T15:20:01.932Z,10.8
2017-03-23T15:25:01.935Z,10.8
2017-03-23T15:30:02.141Z,10.7
2017-03-23T15:35:01.202Z,10.7
2017-03-23T15:40:01.937Z,10.8
2017-03-23T15:45:01.552Z,10.7
2017-03-23T15:50:01.469Z,10.7
2017-03-23T15:55:01.941Z,10.6
2017-03-23T16:00:01.173Z,10.6
2017-03-23T16:05:02.043Z,10.6
2017-03-23T16:10:01.872Z,10.6
2017-03-23T16:15:02.106Z,10.6
2017-03-23T16:20:01.731Z,10.6
2017-03-23T16:25:01.850Z,10.6
2017-03-23T16:30:02.093Z,10.5
2017-03-23T16:35:01.989Z,10.4
2017-03-23T16:40:02.058Z,10.3
2017-03-23T16:45:01.926Z,10.2
2017-03-23T16:50:01.683Z,10.2
2017-03-23T16:55:01.277Z,10.2
2017-03-23T17:00:01.479Z,10.1
2017-03-23T17:05:02.010Z,10
2017-03-23T17:10:01.807Z,10
2017-03-23T17:15:02.033Z,9.9
2017-03-23T17:20:01.322Z,9.9
2017-03-23T17:25:01.276Z,9.8
2017-03-23T17:30:01.607Z,9.7
2017-03-23T17:35:02.148Z,9.7
2017-03-23T17:40:01.911Z,9.6
2017-03-23T17:45:01.950Z,9.6
2017-03-23T17:50:01.768Z,9.6
2017-03-23T17:55:01.459Z,9.6
2017-03-23T18:00:01.539Z,9.6
2017-03-23T18:05:02.002Z,9.5
2017-03-23T18:10:01.911Z,9.5
2017-03-23T18:15:01.169Z,9.5
2017-03-23T18:20:01.619Z,9.5
2017-03-23T18:25:01.767Z,9.4
2017-03-23T18:30:02.132Z,9.4
2017-03-23T18:35:01.526Z,9.3
2017-03-23T18:40:01.425Z,9.2
2017-03-23T18:45:01.278Z,9.2
2017-03-23T18:50:01.626Z,9.1
2017-03-23T18:55:01.938Z,9.1
2017-03-23T19:00:01.758Z,9.1
2017-03-23T19:05:02.079Z,9.1
2017-03-23T19:10:01.467Z,9
2017-03-23T19:15:01.930Z,9
2017-03-23T19:20:02.066Z,9
2017-03-23T19:25:01.531Z,9
2017-03-23T19:30:01.843Z,8.9
2017-03-23T19:35:01.340Z,8.9
2017-03-23T19:40:02.077Z,8.9
2017-03-23T19:45:01.888Z,8.8
2017-03-23T19:50:02.055Z,8.8
2017-03-23T19:55:01.271Z,8.8
2017-03-23T20:00:01.509Z,8.8
2017-03-23T20:05:01.955Z,8.8
2017-03-23T20:10:02.089Z,8.8
2017-03-23T20:15:01.282Z,8.8
2017-03-23T20:20:01.801Z,8.8
2017-03-23T20:25:02.112Z,8.9
2017-03-23T20:30:01.455Z,8.8
2017-03-23T20:35:01.506Z,8.8
2017-03-23T20:40:01.600Z,8.8
2017-03-23T20:45:02.073Z,8.8
2017-03-23T20:50:01.852Z,8.8
2017-03-23T20:55:02.218Z,8.8
2017-03-23T21:00:01.901Z,8.8
2017-03-23T21:05:01.589Z,8.8
2017-03-23T21:10:01.308Z,8.8
2017-03-23T21:15:01.988Z,8.8
2017-03-23T21:20:01.310Z,8.8
2017-03-23T21:25:01.566Z,8.8
2017-03-23T21:30:01.930Z,8.8
2017-03-23T21:35:01.183Z,8.9
2017-03-23T21:40:01.888Z,8.8
2017-03-23T21:45:02.163Z,8.8
2017-03-23T21:50:02.154Z,8.8
2017-03-23T21:55:01.180Z,8.9
2017-03-23T22:00:01.364Z,8.8
2017-03-23T22:05:02.122Z,8.9
2017-03-23T22:10:02.155Z,8.9
2017-03-23T22:15:02.018Z,8.9
2017-03-23T22:20:01.826Z,8.8
2017-03-23T22:25:01.949Z,8.9
2017-03-23T22:30:01.223Z,8.9
2017-03-23T22:35:02.244Z,8.9
2017-03-23T22:40:01.643Z,9
2017-03-23T22:45:01.971Z,8.9
2017-03-23T22:50:01.487Z,8.9
2017-03-23T22:55:01.632Z,9
2017-03-23T23:00:01.885Z,8.9
2017-03-23T23:05:02.320Z,8.9
2017-03-23T23:10:02.033Z,8.9
2017-03-23T23:15:01.528Z,9
2017-03-23T23:20:01.428Z,9
2017-03-23T23:25:01.757Z,9
2017-03-23T23:30:01.818Z,9
2017-03-23T23:35:01.312Z,9
2017-03-23T23:40:01.388Z,9
2017-03-23T23:45:01.661Z,9
2017-03-23T23:50:01.611Z,9
2017-03-23T23:55:01.292Z,9
